Impacts METAR Board
IDs:

KCVG - Cincinnati Intl, KY, US

Updated at: 1200 UTC 15 Jul 2020
Potential Impact None Slight Moderate High
Time 15/00Z 15/01Z 15/02Z 15/03Z 15/04Z 15/05Z 15/06Z 15/07Z 15/08Z 15/09Z 15/10Z 15/11Z 15/12Z
Temp83 79 76 76 75 73 73 72 72 71 65 68 72
Dewpt62 60 60 60 60 61 60 61 61 62 60 62 64
Altim30.05 30.04 30.05 30.06 30.06 30.07 30.08 30.08 30.07 30.06 30.07 30.07 30.09
VIS10 10 10 10 10 10 10 10 10 10 10 10 9
CIG-- -- -- -- -- -- -- -- -- -- -- -- --
CoverSCTSCTSCTSCTSCTSCTSCTSCTCLRCLRFEWSCTFEW
FltCatVFRVFRVFRVFRVFRVFRVFRVFRVFRVFRVFRVFRVFR
WX--------------------------
WDir2000200180000070901501700
WSpd5 0 4 3 0 0 0 0 4 3 4 5 0
WGst-- -- -- -- -- -- -- -- -- -- -- -- --
Raw hourly METARs
KCVG 142352Z 20005KT 10SM FEW065 SCT300 28/17 A3005 RMK AO2 SLP165 T02830167 10317 20283 53002
KCVG 150052Z 00000KT 10SM FEW070 SCT300 26/16 A3004 RMK AO2 SLP163 T02610156
KCVG 150152Z 20004KT 10SM SCT300 24/16 A3005 RMK AO2 SLP165 T02440156
KCVG 150252Z 18003KT 10SM SCT250 24/16 A3006 RMK AO2 SLP168 T02440156 53005
KCVG 150352Z 00000KT 10SM SCT250 24/16 A3006 RMK AO2 SLP169 T02390156
KCVG 150452Z 00000KT 10SM SCT250 23/16 A3007 RMK AO2 SLP170 T02280161 403170189
KCVG 150552Z 00000KT 10SM SCT250 23/16 A3008 RMK AO2 SLP176 T02280156 10283 20222 53007
KCVG 150652Z 00000KT 10SM SCT250 22/16 A3008 RMK AO2 SLP174 T02220161
KCVG 150752Z 07004KT 10SM CLR 22/16 A3007 RMK AO2 SLP170 T02220161
KCVG 150852Z 09003KT 10SM CLR 22/17 A3006 RMK AO2 SLP168 T02170167 57007
KCVG 150952Z 15004KT 10SM FEW250 18/16 A3007 RMK AO2 SLP171 T01830156
KCVG 151052Z 17005KT 10SM SCT250 20/17 A3007 RMK AO2 SLP173 T02000167
KCVG 151152Z 00000KT 9SM FEW300 22/18 A3009 RMK AO2 SLP177 T02220178 10244 20183 53008



Page loaded:  12:59 UTC  |   05:59 AM Pacific  |   06:59 AM Mountain  |   07:59 AM Central  |   08:59 AM Eastern

 

ADVISORIES

FORECASTS

FORECASTS

OBSERVATIONS

USER TOOLS

ABOUT US